Time;durP1;ratioP1;P1;durP2;ratioP2;P2;SDS_P1;SDS_P2;PMS_P1;PMS_P2;Temp;Humidity;BMP_temperature;BMP_pressure;BME280_temperature;BME280_humidity;BME280_pressure;Samples;Min_cycle;Max_cycle;Signal;HPM_P1;HPM_P2
2023/06/25 00:01:24;;;;;;;10.68;3.83;;;13.60;97.80;;;;;;4981865;28;20022;-90
2023/06/25 00:03:51;;;;;;;6.60;4.10;;;13.50;97.90;;;;;;4983539;28;20019;-91
2023/06/25 00:06:19;;;;;;;6.50;3.75;;;13.50;97.70;;;;;;4986477;28;20030;-91
2023/06/25 00:08:45;;;;;;;4.28;3.35;;;13.40;97.70;;;;;;4980909;28;20019;-90
2023/06/25 00:11:11;;;;;;;11.75;3.95;;;13.40;98.00;;;;;;4982720;28;20030;-90
2023/06/25 00:13:36;;;;;;;6.05;3.60;;;13.40;98.20;;;;;;4977785;28;20057;-89
2023/06/25 00:16:02;;;;;;;6.75;3.90;;;13.40;98.40;;;;;;4988274;28;20030;-91
2023/06/25 00:18:28;;;;;;;5.18;3.60;;;13.40;98.40;;;;;;4980756;28;20030;-88
2023/06/25 00:20:57;;;;;;;6.93;4.43;;;13.40;98.10;;;;;;4981580;28;20015;-90
2023/06/25 00:23:22;;;;;;;6.35;3.80;;;13.30;98.20;;;;;;4974061;28;20384;-91
2023/06/25 00:25:48;;;;;;;7.70;3.95;;;13.30;98.20;;;;;;4982931;28;20025;-90
2023/06/25 00:28:13;;;;;;;4.53;3.53;;;13.30;98.10;;;;;;4985532;28;20364;-89
2023/06/25 00:30:39;;;;;;;4.97;3.75;;;13.20;98.30;;;;;;4981650;28;20023;-88
2023/06/25 00:33:05;;;;;;;6.72;3.85;;;13.10;98.30;;;;;;4974597;28;20027;-90
2023/06/25 00:35:49;;;;;;;9.60;4.40;;;13.20;98.50;;;;;;4981595;28;20089;-90
2023/06/25 00:38:15;;;;;;;6.75;3.90;;;13.10;98.10;;;;;;4979325;28;20027;-89
2023/06/25 00:40:40;;;;;;;6.53;4.65;;;13.00;98.40;;;;;;4986281;28;20106;-91
2023/06/25 00:43:06;;;;;;;7.82;4.60;;;13.00;98.70;;;;;;4978205;28;20509;-89
2023/06/25 00:45:34;;;;;;;6.75;3.92;;;13.00;98.90;;;;;;4985127;28;20475;-89
2023/06/25 00:48:00;;;;;;;5.20;3.85;;;13.00;99.10;;;;;;4973618;28;20475;-89
2023/06/25 00:50:26;;;;;;;6.35;4.32;;;12.90;99.00;;;;;;4979061;28;20027;-90
2023/06/25 00:52:52;;;;;;;6.20;3.92;;;12.90;99.20;;;;;;4979265;28;20419;-89
2023/06/25 00:55:19;;;;;;;5.63;4.30;;;13.00;99.30;;;;;;4975147;28;20019;-91
2023/06/25 00:57:45;;;;;;;7.40;4.38;;;13.00;99.10;;;;;;4980527;28;20019;-90
2023/06/25 01:00:16;;;;;;;6.55;4.38;;;12.90;99.10;;;;;;4973267;28;20027;-91
2023/06/25 01:03:26;;;;;;;6.95;4.40;;;13.00;99.20;;;;;;4980081;28;20022;-89
2023/06/25 01:06:15;;;;;;;7.00;4.25;;;12.90;99.20;;;;;;4979856;28;20015;-88
2023/06/25 01:08:49;;;;;;;7.80;4.90;;;12.90;99.30;;;;;;4985087;28;20030;-90
2023/06/25 01:11:15;;;;;;;5.90;4.05;;;12.90;99.30;;;;;;4990012;28;20110;-91
2023/06/25 01:13:40;;;;;;;6.32;4.20;;;12.90;99.40;;;;;;4981275;28;20134;-92
2023/06/25 01:16:06;;;;;;;13.57;5.55;;;12.90;99.50;;;;;;4986002;28;20030;-89
2023/06/25 01:18:32;;;;;;;7.75;4.32;;;12.90;99.50;;;;;;4983600;28;20037;-88
2023/06/25 01:20:59;;;;;;;6.30;3.78;;;12.80;99.70;;;;;;4980064;28;20118;-92
2023/06/25 01:23:25;;;;;;;9.27;4.72;;;12.80;99.50;;;;;;4973010;28;20042;-92
2023/06/25 01:25:51;;;;;;;9.75;4.65;;;12.80;99.60;;;;;;4983204;28;20022;-92
2023/06/25 01:28:20;;;;;;;6.50;4.28;;;12.80;99.80;;;;;;4984893;28;20029;-92
2023/06/25 01:30:47;;;;;;;7.10;4.20;;;12.80;99.80;;;;;;4979922;28;20090;-91
2023/06/25 01:33:15;;;;;;;9.55;6.85;;;12.80;99.80;;;;;;4977694;28;20036;-91
2023/06/25 01:35:42;;;;;;;11.77;8.00;;;12.80;99.70;;;;;;4977025;28;20110;-91
2023/06/25 01:38:08;;;;;;;11.13;6.47;;;12.70;99.60;;;;;;4990540;28;20030;-91
2023/06/25 01:40:33;;;;;;;9.18;6.32;;;12.70;99.60;;;;;;4988545;28;20022;-91
2023/06/25 01:42:59;;;;;;;9.80;6.53;;;12.70;99.80;;;;;;4981082;28;20599;-91
2023/06/25 01:45:25;;;;;;;15.95;10.50;;;12.60;99.80;;;;;;4988194;28;20077;-91
2023/06/25 01:47:50;;;;;;;9.55;6.47;;;12.60;99.70;;;;;;4982652;28;20387;-91
2023/06/25 01:50:16;;;;;;;8.50;5.25;;;12.50;99.90;;;;;;4975687;28;20034;-91
2023/06/25 01:52:42;;;;;;;9.48;4.40;;;12.60;99.90;;;;;;4983265;28;20037;-91
2023/06/25 01:55:07;;;;;;;5.95;4.50;;;12.60;99.90;;;;;;4982815;28;20035;-90
2023/06/25 01:57:33;;;;;;;7.13;4.35;;;12.60;99.90;;;;;;4990670;28;20050;-91
2023/06/25 01:59:59;;;;;;;8.43;4.85;;;12.60;99.80;;;;;;4983967;28;20589;-90
2023/06/25 02:02:24;;;;;;;7.93;4.32;;;12.50;99.70;;;;;;4980590;28;20022;-91
2023/06/25 02:04:50;;;;;;;8.80;5.03;;;12.50;99.90;;;;;;4986904;28;20023;-91
2023/06/25 02:07:15;;;;;;;6.32;4.38;;;12.50;99.90;;;;;;4983688;28;20023;-91
2023/06/25 02:09:41;;;;;;;6.72;4.10;;;12.50;99.90;;;;;;4983945;28;20027;-91
2023/06/25 02:12:07;;;;;;;9.88;3.75;;;12.50;99.80;;;;;;4977958;28;20498;-90
2023/06/25 02:14:33;;;;;;;5.82;3.80;;;12.50;99.70;;;;;;4986902;28;20390;-91
2023/06/25 02:16:59;;;;;;;5.43;3.78;;;12.40;99.70;;;;;;4982473;28;20106;-90
2023/06/25 02:19:24;;;;;;;5.57;3.58;;;12.50;99.90;;;;;;4985386;28;20434;-90
2023/06/25 02:21:50;;;;;;;8.02;3.83;;;12.40;99.90;;;;;;4988164;28;20022;-90
2023/06/25 02:24:16;;;;;;;5.75;3.90;;;12.40;99.90;;;;;;4986990;28;20022;-88
2023/06/25 02:26:42;;;;;;;5.05;3.70;;;12.50;99.90;;;;;;4985696;28;20033;-89
2023/06/25 02:29:07;;;;;;;5.20;3.50;;;12.50;99.90;;;;;;4983050;28;20101;-89
2023/06/25 02:31:33;;;;;;;8.57;3.88;;;12.40;99.90;;;;;;4986666;28;20066;-90
2023/06/25 02:33:59;;;;;;;6.90;3.55;;;12.40;99.90;;;;;;4985117;28;20412;-90
2023/06/25 02:36:25;;;;;;;8.80;3.60;;;12.30;99.90;;;;;;4983072;28;20487;-90
2023/06/25 02:38:50;;;;;;;4.85;3.83;;;12.40;99.90;;;;;;4976560;28;20460;-91
2023/06/25 02:41:16;;;;;;;6.05;4.22;;;12.40;99.90;;;;;;4978013;28;20156;-90
2023/06/25 02:43:42;;;;;;;5.63;3.67;;;12.30;99.90;;;;;;4980773;28;20022;-90
2023/06/25 02:46:07;;;;;;;4.90;3.17;;;12.30;99.90;;;;;;4975725;28;20077;-90
2023/06/25 02:48:35;;;;;;;8.05;3.65;;;12.30;99.90;;;;;;4981543;28;20041;-91
2023/06/25 02:51:01;;;;;;;7.47;4.00;;;12.30;99.90;;;;;;4973835;28;20022;-89
2023/06/25 02:53:26;;;;;;;8.95;3.47;;;12.30;99.90;;;;;;4981485;28;20081;-90
2023/06/25 02:55:52;;;;;;;6.60;3.60;;;12.30;99.90;;;;;;4977219;28;20023;-90
2023/06/25 02:58:17;;;;;;;4.45;3.28;;;12.30;99.90;;;;;;4977902;28;20030;-91
2023/06/25 03:00:43;;;;;;;5.32;3.50;;;12.30;99.90;;;;;;4980352;28;20058;-90
2023/06/25 03:03:09;;;;;;;7.85;3.63;;;12.30;99.90;;;;;;4983344;28;20105;-90
2023/06/25 03:05:34;;;;;;;5.68;3.80;;;12.30;99.90;;;;;;4976170;28;20077;-91
2023/06/25 03:08:00;;;;;;;5.55;3.72;;;12.30;99.90;;;;;;4982643;28;20031;-91
2023/06/25 03:10:28;;;;;;;7.82;4.00;;;12.30;99.90;;;;;;4984849;28;20553;-90
2023/06/25 03:12:54;;;;;;;4.88;3.70;;;12.20;99.90;;;;;;4986752;28;20030;-89
2023/06/25 03:15:20;;;;;;;5.28;3.90;;;12.30;99.90;;;;;;4982065;28;20026;-91
2023/06/25 03:17:46;;;;;;;4.45;2.85;;;12.30;99.90;;;;;;4989322;28;20027;-89
2023/06/25 03:20:13;;;;;;;11.48;3.63;;;12.30;99.90;;;;;;4981838;28;20087;-90
2023/06/25 03:22:39;;;;;;;8.68;4.13;;;12.30;99.90;;;;;;4982692;28;20345;-89
2023/06/25 03:25:05;;;;;;;6.60;4.95;;;12.30;99.90;;;;;;4982442;28;20022;-90
2023/06/25 03:27:35;;;;;;;7.55;3.63;;;12.30;99.90;;;;;;4974892;28;20472;-91
2023/06/25 03:30:01;;;;;;;5.05;3.45;;;12.20;99.90;;;;;;4984441;28;20026;-90
2023/06/25 03:32:27;;;;;;;5.82;3.15;;;12.20;99.90;;;;;;4987208;28;20038;-90
2023/06/25 03:34:55;;;;;;;5.22;3.45;;;12.20;99.90;;;;;;4986391;28;20118;-90
2023/06/25 03:37:21;;;;;;;8.45;3.88;;;12.20;99.90;;;;;;4980688;28;20436;-91
2023/06/25 03:39:46;;;;;;;5.07;3.70;;;12.20;99.90;;;;;;4986838;28;20022;-91
2023/06/25 03:42:12;;;;;;;8.48;3.90;;;12.10;99.90;;;;;;4984285;28;20023;-90
2023/06/25 03:44:45;;;;;;;5.93;3.70;;;12.10;99.90;;;;;;4981601;28;20383;-91
2023/06/25 03:47:11;;;;;;;6.60;3.80;;;12.10;99.90;;;;;;4979495;28;20026;-90
2023/06/25 03:49:36;;;;;;;4.47;3.55;;;12.10;99.90;;;;;;4981988;28;20069;-91
2023/06/25 03:52:02;;;;;;;10.98;3.63;;;12.10;99.90;;;;;;4982306;28;20070;-90
2023/06/25 03:54:27;;;;;;;7.40;3.67;;;12.10;99.90;;;;;;4980902;28;20463;-91
2023/06/25 03:56:53;;;;;;;5.97;3.83;;;12.10;99.90;;;;;;4982667;28;20087;-91
2023/06/25 03:59:19;;;;;;;6.03;3.63;;;12.00;99.90;;;;;;4981032;28;20031;-91
2023/06/25 04:01:44;;;;;;;11.73;3.95;;;12.10;99.90;;;;;;4985760;28;20382;-91
2023/06/25 04:04:10;;;;;;;6.00;3.55;;;12.10;99.90;;;;;;4984655;28;20452;-91
2023/06/25 04:06:35;;;;;;;7.05;3.60;;;12.10;99.90;;;;;;4980869;28;20027;-91
2023/06/25 04:09:01;;;;;;;9.52;3.63;;;12.10;99.90;;;;;;4986998;28;20467;-92
2023/06/25 04:11:27;;;;;;;10.48;3.60;;;12.10;99.90;;;;;;4984957;28;20037;-93
2023/06/25 04:13:52;;;;;;;4.20;3.63;;;12.10;99.90;;;;;;4984601;28;20041;-91
2023/06/25 04:16:18;;;;;;;5.20;3.63;;;12.10;99.90;;;;;;4986612;28;20076;-91
2023/06/25 04:18:43;;;;;;;8.55;4.30;;;12.20;99.90;;;;;;4981965;28;20019;-91
2023/06/25 04:21:09;;;;;;;10.05;3.58;;;12.20;99.90;;;;;;4981488;28;20100;-91
2023/06/25 04:23:35;;;;;;;5.80;3.50;;;12.30;99.90;;;;;;4979816;28;20019;-92
2023/06/25 04:26:00;;;;;;;8.82;3.65;;;12.20;99.90;;;;;;4975170;28;20022;-91
2023/06/25 04:28:26;;;;;;;9.90;3.28;;;12.30;99.90;;;;;;4975611;28;20387;-91
2023/06/25 04:30:51;;;;;;;8.43;3.92;;;12.30;99.90;;;;;;4987046;28;20471;-92
2023/06/25 04:33:19;;;;;;;4.85;3.53;;;12.30;99.90;;;;;;4982612;28;20042;-91
2023/06/25 04:35:45;;;;;;;7.05;4.20;;;12.40;99.90;;;;;;4982178;28;20081;-92
2023/06/25 04:38:11;;;;;;;6.90;3.72;;;12.40;99.90;;;;;;4974822;28;20022;-91
2023/06/25 04:40:36;;;;;;;8.13;3.60;;;12.40;99.90;;;;;;4986918;28;20019;-92
2023/06/25 04:43:02;;;;;;;10.07;4.50;;;12.50;99.90;;;;;;4988359;28;20030;-91
2023/06/25 04:45:28;;;;;;;5.60;3.47;;;12.50;99.90;;;;;;4981465;28;20041;-91
2023/06/25 04:47:54;;;;;;;5.45;3.42;;;12.50;99.90;;;;;;4981349;28;20026;-90
2023/06/25 04:50:20;;;;;;;4.53;3.35;;;12.50;99.90;;;;;;4981015;28;20027;-91
2023/06/25 04:52:46;;;;;;;5.85;3.60;;;12.60;99.90;;;;;;4987217;28;20117;-90
2023/06/25 04:55:12;;;;;;;7.68;3.88;;;12.70;99.90;;;;;;4974172;28;20102;-92
2023/06/25 04:57:39;;;;;;;9.70;3.50;;;12.80;99.90;;;;;;4997447;28;20027;-92
2023/06/25 05:00:05;;;;;;;8.70;3.80;;;12.80;99.90;;;;;;4986934;28;20029;-92
2023/06/25 05:02:31;;;;;;;6.63;3.15;;;12.90;99.90;;;;;;4981361;28;20038;-91
2023/06/25 05:04:56;;;;;;;4.47;3.33;;;13.00;99.90;;;;;;4982588;28;20030;-91
2023/06/25 05:07:22;;;;;;;7.93;3.30;;;13.00;99.90;;;;;;4986003;28;20030;-91
2023/06/25 05:09:48;;;;;;;4.38;3.55;;;13.10;99.90;;;;;;4981845;28;20022;-91
2023/06/25 05:12:13;;;;;;;8.25;3.80;;;13.20;99.90;;;;;;4984119;28;20118;-92
2023/06/25 05:14:39;;;;;;;8.10;3.75;;;13.30;99.90;;;;;;4982930;28;20038;-91
2023/06/25 05:17:05;;;;;;;6.72;3.58;;;13.50;99.90;;;;;;4989122;28;20050;-91
2023/06/25 05:19:31;;;;;;;7.25;3.58;;;13.60;99.90;;;;;;4986227;28;20027;-92
2023/06/25 05:21:56;;;;;;;11.23;4.80;;;13.70;99.80;;;;;;4991426;28;20022;-90
2023/06/25 05:24:22;;;;;;;11.52;4.28;;;13.80;99.70;;;;;;4984467;28;20098;-91
2023/06/25 05:26:47;;;;;;;6.78;4.20;;;13.90;99.60;;;;;;4982422;28;20110;-91
2023/06/25 05:29:13;;;;;;;6.60;4.13;;;13.90;99.40;;;;;;4983630;28;20061;-91
2023/06/25 05:31:39;;;;;;;9.32;3.78;;;14.00;99.30;;;;;;4983629;28;20122;-90
2023/06/25 05:34:05;;;;;;;7.82;3.80;;;14.10;99.80;;;;;;4986600;28;20081;-91
2023/06/25 05:36:30;;;;;;;5.05;4.03;;;14.20;99.60;;;;;;4982758;28;20019;-90
2023/06/25 05:38:56;;;;;;;10.77;4.00;;;14.30;99.70;;;;;;4977119;28;20065;-91
2023/06/25 05:41:21;;;;;;;11.18;4.95;;;14.40;99.60;;;;;;4984912;28;20034;-90
2023/06/25 05:43:47;;;;;;;6.82;5.03;;;14.60;99.90;;;;;;4988421;28;20046;-91
2023/06/25 05:46:13;;;;;;;10.48;4.70;;;14.60;99.80;;;;;;4984049;28;20376;-91
2023/06/25 05:48:43;;;;;;;6.50;4.70;;;14.80;99.90;;;;;;4985095;28;20031;-92
2023/06/25 05:51:08;;;;;;;12.38;5.40;;;14.90;99.60;;;;;;4986378;28;20077;-92
2023/06/25 05:53:40;;;;;;;7.93;4.85;;;15.00;99.90;;;;;;4990101;28;20479;-91
2023/06/25 05:56:05;;;;;;;14.98;6.38;;;15.10;99.90;;;;;;4978166;28;20021;-90
2023/06/25 05:58:32;;;;;;;8.80;5.28;;;15.30;99.90;;;;;;4983929;28;20090;-91
2023/06/25 06:00:58;;;;;;;10.10;5.40;;;15.40;99.90;;;;;;4982520;28;20062;-91
2023/06/25 06:03:23;;;;;;;9.98;5.50;;;15.60;99.70;;;;;;4988917;28;20022;-90
2023/06/25 06:05:49;;;;;;;10.45;6.07;;;15.70;99.70;;;;;;4981227;28;20387;-91
2023/06/25 06:08:14;;;;;;;9.55;5.72;;;15.80;99.60;;;;;;4976196;28;20026;-90
2023/06/25 06:10:40;;;;;;;9.80;5.85;;;16.00;99.10;;;;;;4975119;28;20035;-91
2023/06/25 06:13:06;;;;;;;9.98;5.88;;;16.10;99.20;;;;;;4982402;28;20043;-90
2023/06/25 06:15:31;;;;;;;9.93;5.53;;;16.30;99.00;;;;;;4983385;28;20015;-90
2023/06/25 06:17:57;;;;;;;9.25;5.65;;;16.50;98.60;;;;;;4983886;28;20026;-90
2023/06/25 06:20:23;;;;;;;10.55;5.63;;;16.70;98.70;;;;;;4982057;28;20391;-91
2023/06/25 06:22:48;;;;;;;8.68;6.03;;;17.00;98.70;;;;;;4982722;28;20027;-90
2023/06/25 06:25:14;;;;;;;11.38;6.20;;;17.30;99.70;;;;;;4978342;28;20019;-90
2023/06/25 06:27:40;;;;;;;7.32;5.22;;;17.60;99.40;;;;;;4980453;28;20084;-88
2023/06/25 06:30:06;;;;;;;9.07;4.57;;;17.90;96.80;;;;;;4987258;28;20050;-90
2023/06/25 06:32:32;;;;;;;9.75;5.20;;;18.20;93.80;;;;;;4976370;28;20027;-90
2023/06/25 06:34:57;;;;;;;8.77;4.95;;;18.50;95.30;;;;;;4980434;28;20035;-90
2023/06/25 06:37:23;;;;;;;9.02;4.65;;;18.80;93.00;;;;;;4987722;28;20025;-91
2023/06/25 06:39:49;;;;;;;7.28;4.20;;;19.00;91.60;;;;;;4978556;28;20026;-90
2023/06/25 06:42:14;;;;;;;7.60;4.22;;;19.20;91.00;;;;;;4987115;28;20026;-90
2023/06/25 06:44:40;;;;;;;7.38;4.32;;;19.40;91.80;;;;;;4987268;28;20036;-90
2023/06/25 06:47:05;;;;;;;4.57;3.63;;;19.50;91.40;;;;;;4976854;28;20011;-87
2023/06/25 06:49:31;;;;;;;6.28;4.30;;;19.60;91.30;;;;;;4976536;28;20043;-88
2023/06/25 06:51:57;;;;;;;6.20;3.88;;;19.70;90.90;;;;;;4988047;28;20026;-89
2023/06/25 06:54:22;;;;;;;4.68;4.25;;;19.80;91.00;;;;;;4984710;28;20060;-89
2023/06/25 06:56:48;;;;;;;5.75;4.05;;;19.90;90.70;;;;;;4984173;28;20022;-88
2023/06/25 06:59:14;;;;;;;5.50;3.75;;;19.90;91.20;;;;;;4981933;28;20038;-90
2023/06/25 07:01:39;;;;;;;6.32;4.00;;;20.00;90.90;;;;;;4986079;28;20022;-90
2023/06/25 07:04:05;;;;;;;15.50;3.85;;;20.10;91.30;;;;;;4986025;28;20114;-90
2023/06/25 07:06:31;;;;;;;7.35;4.07;;;20.20;91.20;;;;;;4983536;28;20082;-90
2023/06/25 07:08:56;;;;;;;6.55;3.90;;;20.40;88.10;;;;;;5001065;28;20026;-90
2023/06/25 07:11:22;;;;;;;5.95;3.47;;;20.50;88.70;;;;;;4984378;28;20037;-88
2023/06/25 07:13:47;;;;;;;4.97;3.60;;;20.60;86.50;;;;;;4984072;28;20101;-90
2023/06/25 07:16:13;;;;;;;5.40;3.45;;;20.70;86.00;;;;;;4981699;28;20019;-90
2023/06/25 07:18:39;;;;;;;5.43;3.60;;;20.80;87.20;;;;;;4981941;28;20038;-89
2023/06/25 07:21:06;;;;;;;5.45;3.53;;;20.90;86.40;;;;;;4980073;28;20049;-88
2023/06/25 07:23:33;;;;;;;4.95;3.75;;;21.00;86.50;;;;;;4989525;28;20125;-91
2023/06/25 07:25:59;;;;;;;10.13;3.83;;;21.10;84.60;;;;;;4974795;28;20023;-89
2023/06/25 07:28:24;;;;;;;6.05;3.95;;;21.30;83.60;;;;;;4986251;28;20030;-89
2023/06/25 07:30:50;;;;;;;4.13;3.42;;;21.40;84.50;;;;;;4979257;28;20014;-90
2023/06/25 07:33:16;;;;;;;6.55;3.72;;;21.50;82.50;;;;;;4972684;28;20038;-88
2023/06/25 07:35:41;;;;;;;6.20;3.50;;;21.60;80.40;;;;;;4969914;28;20131;-90
2023/06/25 07:38:07;;;;;;;6.53;3.35;;;21.60;81.90;;;;;;4975198;28;20027;-89
2023/06/25 07:40:32;;;;;;;4.90;3.85;;;21.80;80.60;;;;;;4975177;28;20026;-91
2023/06/25 07:42:58;;;;;;;5.30;3.60;;;22.00;77.80;;;;;;4981626;28;20027;-89
2023/06/25 07:45:24;;;;;;;6.32;3.72;;;22.00;76.90;;;;;;4981977;28;20023;-89
2023/06/25 07:47:49;;;;;;;7.80;3.67;;;22.00;76.70;;;;;;4983323;28;20030;-89
2023/06/25 07:50:15;;;;;;;8.40;3.85;;;22.10;79.90;;;;;;4983554;28;20026;-90
2023/06/25 07:52:41;;;;;;;7.15;3.75;;;22.30;73.90;;;;;;4981599;28;20485;-91
2023/06/25 07:55:07;;;;;;;5.13;3.60;;;22.20;76.40;;;;;;4989176;28;20022;-91
2023/06/25 07:57:32;;;;;;;4.43;3.50;;;22.30;76.30;;;;;;4995911;28;20387;-89
2023/06/25 07:59:58;;;;;;;7.28;3.95;;;22.30;76.50;;;;;;4980208;28;20027;-89
2023/06/25 08:02:24;;;;;;;5.40;3.40;;;22.50;75.70;;;;;;4981752;28;20027;-89
2023/06/25 08:04:49;;;;;;;4.20;3.40;;;22.40;76.90;;;;;;4978882;28;20022;-89
2023/06/25 08:07:15;;;;;;;6.00;4.07;;;22.50;74.60;;;;;;4983961;28;20030;-89
2023/06/25 08:09:41;;;;;;;5.78;3.60;;;22.60;74.90;;;;;;4981916;28;20048;-89
2023/06/25 08:12:07;;;;;;;4.35;3.33;;;22.70;77.30;;;;;;4980679;28;20109;-92
2023/06/25 08:14:33;;;;;;;5.65;3.60;;;22.70;73.60;;;;;;4994336;28;20027;-90
2023/06/25 08:16:58;;;;;;;5.65;3.45;;;22.80;74.20;;;;;;4985082;28;20033;-89
2023/06/25 08:19:24;;;;;;;6.30;3.88;;;22.80;75.70;;;;;;4974500;28;20026;-88
2023/06/25 08:21:52;;;;;;;7.22;4.15;;;22.80;75.10;;;;;;4995774;28;20023;-90
2023/06/25 08:24:18;;;;;;;6.00;4.35;;;22.90;73.80;;;;;;4981812;28;20059;-89
2023/06/25 08:26:43;;;;;;;6.88;3.70;;;22.90;72.70;;;;;;4967440;28;20506;-91
2023/06/25 08:29:09;;;;;;;4.38;3.33;;;23.10;71.70;;;;;;4983573;28;20644;-88
2023/06/25 08:31:35;;;;;;;6.15;4.00;;;23.20;73.70;;;;;;4980315;28;20027;-89
2023/06/25 08:34:00;;;;;;;7.38;4.00;;;23.40;71.10;;;;;;4979135;28;20085;-90
2023/06/25 08:36:26;;;;;;;5.68;3.67;;;23.50;72.00;;;;;;4982904;28;20062;-89
2023/06/25 08:38:51;;;;;;;5.78;4.10;;;23.80;74.00;;;;;;4975274;28;20376;-89
2023/06/25 08:41:17;;;;;;;8.38;4.60;;;24.20;70.90;;;;;;4980504;28;20025;-90
2023/06/25 08:43:43;;;;;;;6.05;3.65;;;25.00;65.90;;;;;;4978359;28;20026;-90
2023/06/25 08:46:09;;;;;;;4.53;3.70;;;25.70;64.00;;;;;;4985317;28;20018;-91
2023/06/25 08:48:36;;;;;;;8.18;4.10;;;26.50;62.00;;;;;;4982835;28;20041;-91
2023/06/25 08:51:08;;;;;;;8.05;4.25;;;27.20;61.90;;;;;;4992990;28;20523;-91
2023/06/25 08:53:35;;;;;;;3.67;3.20;;;27.40;58.10;;;;;;4983904;28;20097;-90
2023/06/25 08:56:03;;;;;;;4.25;3.38;;;28.30;55.30;;;;;;4977942;28;20110;-90
2023/06/25 08:58:29;;;;;;;7.22;3.83;;;29.00;57.70;;;;;;4984254;28;20027;-92
2023/06/25 09:00:55;;;;;;;5.78;3.80;;;29.80;51.60;;;;;;4986784;28;20426;-90
2023/06/25 09:03:20;;;;;;;4.32;3.80;;;29.60;49.00;;;;;;4986605;28;20026;-89
2023/06/25 09:05:57;;;;;;;8.82;3.90;;;29.80;50.20;;;;;;4976407;28;20055;-89
2023/06/25 09:08:24;;;;;;;6.45;3.70;;;30.20;50.70;;;;;;4974376;28;20534;-89
2023/06/25 09:10:55;;;;;;;6.53;3.70;;;30.70;50.40;;;;;;4989914;28;21224;-85
2023/06/25 09:13:27;;;;;;;4.10;3.20;;;31.40;45.30;;;;;;4977069;28;20042;-90
2023/06/25 09:15:59;;;;;;;5.82;3.25;;;31.40;45.60;;;;;;4983932;28;20022;-90
2023/06/25 09:18:25;;;;;;;5.47;3.55;;;31.90;46.10;;;;;;4987854;28;20037;-91
2023/06/25 09:20:51;;;;;;;5.80;3.50;;;32.30;44.40;;;;;;4981076;28;20026;-89
2023/06/25 09:23:21;;;;;;;3.60;3.20;;;32.60;44.90;;;;;;4985527;28;20050;-91
2023/06/25 09:25:47;;;;;;;4.13;3.15;;;33.00;42.80;;;;;;4975477;28;20011;-91
2023/06/25 09:28:13;;;;;;;5.15;3.70;;;32.90;40.30;;;;;;4982272;28;20022;-87
2023/06/25 09:30:39;;;;;;;6.45;3.40;;;32.30;42.80;;;;;;4975821;28;20034;-89
2023/06/25 09:33:05;;;;;;;5.03;3.47;;;32.60;41.90;;;;;;4975274;28;20073;-91
2023/06/25 09:35:32;;;;;;;6.50;3.45;;;32.90;41.10;;;;;;4983197;28;20027;-90
2023/06/25 09:37:59;;;;;;;3.85;3.35;;;33.20;40.90;;;;;;4983028;28;20030;-90
2023/06/25 09:40:25;;;;;;;6.03;2.97;;;33.80;40.70;;;;;;4975897;28;20031;-89
2023/06/25 09:42:53;;;;;;;5.38;3.40;;;34.30;39.10;;;;;;4984085;28;20360;-90
2023/06/25 09:45:21;;;;;;;3.60;3.13;;;33.50;38.50;;;;;;4990530;28;20431;-91
2023/06/25 09:47:48;;;;;;;4.47;3.60;;;33.40;38.10;;;;;;4983482;28;20018;-88
2023/06/25 09:50:30;;;;;;;7.22;3.38;;;33.60;41.10;;;;;;4983347;28;20034;-89
2023/06/25 09:53:06;;;;;;;4.82;3.03;;;34.50;40.00;;;;;;4963379;28;20371;-91
2023/06/25 09:55:34;;;;;;;6.57;3.50;;;34.60;36.50;;;;;;4981379;28;20026;-92
2023/06/25 09:58:01;;;;;;;3.53;3.22;;;34.80;36.90;;;;;;4976004;28;20475;-91
2023/06/25 10:00:28;;;;;;;4.22;3.10;;;34.40;37.90;;;;;;4980906;28;20507;-91
2023/06/25 10:02:57;;;;;;;4.68;3.20;;;34.20;40.40;;;;;;4986461;28;20018;-93
2023/06/25 10:05:23;;;;;;;5.47;3.53;;;34.40;40.10;;;;;;4975321;28;20015;-88
2023/06/25 10:07:49;;;;;;;3.95;3.40;;;34.60;37.90;;;;;;4976383;28;20023;-89
2023/06/25 10:10:29;;;;;;;6.03;3.00;;;35.20;38.70;;;;;;4978760;28;20026;-88
2023/06/25 10:12:54;;;;;;;5.60;3.53;;;35.00;36.70;;;;;;4971965;28;20035;-85
2023/06/25 10:15:36;;;;;;;5.35;3.28;;;34.60;35.60;;;;;;4970342;28;20577;-84
2023/06/25 10:18:04;;;;;;;4.78;3.55;;;35.40;36.50;;;;;;4967990;28;20058;-85
2023/06/25 10:20:37;;;;;;;3.30;3.00;;;35.30;38.10;;;;;;4971081;28;20030;-84
2023/06/25 10:23:12;;;;;;;5.35;3.38;;;35.20;36.60;;;;;;4984785;28;20027;-85
2023/06/25 10:25:55;;;;;;;5.18;3.30;;;34.40;36.40;;;;;;4975450;28;20051;-92
2023/06/25 10:28:37;;;;;;;7.50;3.50;;;34.90;37.80;;;;;;4989540;28;20022;-90
2023/06/25 10:31:13;;;;;;;3.60;3.30;;;35.40;37.70;;;;;;4972940;28;20026;-90
2023/06/25 10:33:39;;;;;;;4.15;2.90;;;35.70;36.20;;;;;;4982394;28;20030;-91
2023/06/25 10:36:08;;;;;;;7.07;3.72;;;36.60;35.00;;;;;;4976264;28;20070;-90
2023/06/25 10:38:34;;;;;;;5.78;3.30;;;36.20;34.50;;;;;;4985731;28;20022;-88
2023/06/25 10:41:00;;;;;;;7.25;3.28;;;36.10;34.60;;;;;;4971022;28;20019;-86
2023/06/25 10:43:25;;;;;;;4.40;3.50;;;36.50;34.40;;;;;;4982131;28;20510;-88
2023/06/25 10:45:55;;;;;;;3.90;3.30;;;36.40;34.20;;;;;;4976728;28;20023;-88
2023/06/25 10:48:22;;;;;;;3.92;3.10;;;37.10;34.20;;;;;;4976096;28;20035;-88
2023/06/25 10:50:50;;;;;;;5.88;3.45;;;37.10;34.60;;;;;;4970410;28;20026;-88
2023/06/25 10:53:18;;;;;;;3.85;3.45;;;36.70;32.80;;;;;;4975706;28;20057;-85
2023/06/25 10:55:49;;;;;;;4.25;3.25;;;36.30;33.90;;;;;;4970502;28;20077;-87
2023/06/25 10:58:16;;;;;;;;;;;36.60;32.90;;;;;;4970898;28;20026;-88
2023/06/25 11:00:42;;;;;;;6.68;3.33;;;36.00;34.30;;;;;;4978366;28;19906;-87
2023/06/25 11:03:08;;;;;;;4.00;2.78;;;36.10;35.50;;;;;;4978535;28;20497;-86
2023/06/25 11:05:42;;;;;;;4.88;3.03;;;36.40;35.20;;;;;;4968504;28;20015;-87
2023/06/25 11:08:08;;;;;;;5.80;3.63;;;36.00;33.40;;;;;;4969613;28;20033;-87
2023/06/25 11:10:36;;;;;;;5.72;3.28;;;37.00;35.70;;;;;;4970509;28;20030;-89
2023/06/25 11:13:03;;;;;;;5.32;3.38;;;38.20;31.10;;;;;;4974580;28;20046;-90
2023/06/25 11:15:32;;;;;;;4.07;3.05;;;38.10;32.50;;;;;;4969641;28;20559;-87
2023/06/25 11:17:59;;;;;;;5.37;3.30;;;37.80;33.30;;;;;;4975391;28;20368;-91
2023/06/25 11:20:26;;;;;;;3.53;3.13;;;37.60;31.90;;;;;;4976471;28;20109;-87
2023/06/25 11:22:51;;;;;;;4.00;2.90;;;38.10;34.50;;;;;;4976404;28;20027;-87
2023/06/25 11:25:21;;;;;;;6.15;3.75;;;38.20;33.90;;;;;;4977860;28;20030;-84
2023/06/25 11:27:48;;;;;;;7.53;3.57;;;37.80;32.30;;;;;;4986144;28;20023;-86
2023/06/25 11:30:14;;;;;;;4.78;3.50;;;38.10;31.60;;;;;;4968669;28;20050;-88
2023/06/25 11:32:40;;;;;;;3.92;3.15;;;38.30;34.90;;;;;;4974037;28;20069;-88
2023/06/25 11:35:12;;;;;;;5.43;3.38;;;38.10;33.00;;;;;;4981337;28;20026;-88
2023/06/25 11:37:46;;;;;;;4.30;3.25;;;38.00;32.90;;;;;;4970559;28;20023;-90
2023/06/25 11:40:23;;;;;;;4.57;3.78;;;36.60;33.30;;;;;;4970250;28;20027;-91
2023/06/25 11:42:49;;;;;;;4.78;3.05;;;36.50;33.40;;;;;;4972494;28;20041;-91
2023/06/25 11:45:15;;;;;;;7.57;4.00;;;37.40;36.20;;;;;;4981706;28;20018;-91
2023/06/25 11:47:50;;;;;;;5.95;3.65;;;37.50;32.20;;;;;;4985863;28;20077;-94
2023/06/25 11:50:20;;;;;;;6.63;4.10;;;37.40;36.40;;;;;;4975895;28;20753;-90
2023/06/25 11:52:45;;;;;;;3.22;2.92;;;39.00;31.20;;;;;;4983970;28;20026;-93
2023/06/25 11:55:11;;;;;;;5.43;3.58;;;39.10;34.90;;;;;;4981489;28;20101;-89
2023/06/25 11:57:38;;;;;;;3.70;3.40;;;40.00;31.50;;;;;;4984912;28;20025;-93
2023/06/25 12:00:04;;;;;;;4.15;3.28;;;40.70;30.90;;;;;;4985073;28;20027;-90
2023/06/25 12:02:30;;;;;;;4.50;3.40;;;41.10;30.00;;;;;;4970537;28;20042;-89
2023/06/25 12:04:56;;;;;;;4.93;3.53;;;40.60;29.90;;;;;;4982292;28;20026;-89
2023/06/25 12:07:22;;;;;;;4.15;3.72;;;39.90;30.70;;;;;;4980926;28;20041;-91
2023/06/25 12:09:47;;;;;;;5.47;3.92;;;37.70;31.10;;;;;;4982465;28;20030;-88
2023/06/25 12:12:13;;;;;;;5.28;3.30;;;36.10;33.30;;;;;;4977863;28;20118;-89
2023/06/25 12:14:39;;;;;;;5.10;3.53;;;36.80;34.30;;;;;;4982550;28;20037;-90
2023/06/25 12:17:05;;;;;;;6.40;3.75;;;37.10;36.10;;;;;;4974507;28;20022;-87
2023/06/25 12:19:30;;;;;;;4.22;3.33;;;36.70;33.90;;;;;;4978283;28;20122;-89
2023/06/25 12:21:56;;;;;;;4.50;3.28;;;37.40;36.60;;;;;;4981834;28;20472;-90
2023/06/25 12:24:23;;;;;;;5.20;3.63;;;38.40;34.30;;;;;;4974551;28;20439;-89
2023/06/25 12:26:49;;;;;;;6.57;4.05;;;39.10;31.10;;;;;;4975008;28;20022;-88
2023/06/25 12:29:14;;;;;;;4.90;3.50;;;39.60;31.80;;;;;;4978436;28;20030;-87
2023/06/25 12:31:40;;;;;;;4.97;3.42;;;38.40;32.20;;;;;;4970329;28;20034;-86
2023/06/25 12:34:06;;;;;;;4.07;3.38;;;38.40;32.00;;;;;;4977377;28;20122;-92
2023/06/25 12:36:31;;;;;;;4.38;3.67;;;36.90;33.20;;;;;;4980092;28;20031;-90
2023/06/25 12:39:00;;;;;;;4.18;3.78;;;37.90;34.20;;;;;;4975680;28;20030;-86
2023/06/25 12:41:27;;;;;;;4.32;3.72;;;38.40;31.90;;;;;;4974587;28;20018;-87
2023/06/25 12:43:52;;;;;;;3.72;3.33;;;39.10;32.00;;;;;;4975262;28;20019;-85